Aérodrome :
LOGIN :

S'inscrire | Disclaimer

   EN    FR    IT 

 










Légende :    VFR   VFR Marginal   IFR   IFR Intensif   IFR Très Intensif
Visi : 
Plafond : 
>= 8 km
>= 3000ft
5 à 8 km
1000 à 3000 ft
1500m à 5 km
500 à 1000 ft
800 à 1500m
200 à 500 ft
< 800m
< 200 ft
Symboles :   Orages  Brouillard  Fortes neiges  Fortes précipitations  Vent > 20 kt
SIGMETs :   Divers  Orages  Givrage  Turbulence  Onde Orograph.  Cendres Volcan.







- Altitude de l'aérodrome : 56 ft
- Code IATA : BZR
- Voir les cartes d'approche


LFMU - Beziers / Vias

DERNIER METAR :
  • 211530Z AUTO 16007KT 120V190 CAVOK 20/10 Q1017 NOSIG

METARs EXPIRÉS :
  • 211500Z AUTO 16007KT 120V220 CAVOK 20/10 Q1017 NOSIG
  • 211430Z AUTO 16007KT 120V200 CAVOK 21/09 Q1017 NOSIG
  • 211400Z AUTO 17007KT CAVOK 21/08 Q1017 NOSIG
  • 211330Z AUTO 16006KT 100V230 CAVOK 21/08 Q1018 NOSIG
  • 211300Z AUTO 18007KT 130V210 CAVOK 21/08 Q1018 NOSIG

TAF TAF LFMU
Valide du 21 à 15h jusqu'au 22 à 15h UTC


211400Z 2115/2215 16006KT CAVOK
BECMG 2117/2119 VRB02KT
BECMG 2201/2203 BKN010
BECMG 2211/2213 14010KT
ATIS : +33 4 67 90 88 88
Pas de NOTAMs connus pour ce terrain.



MET'MAP, la Météo Aéronautique d'un coup d'oeil ! - Copyright ORBIFLY Décembre 2007 - Disclaimer

ORBIFLY MET'MAP TEAM :

Programmation & Développement : Alexandra Zaïnal
Conception & Développement : Baudouin d'Aumeries
Co-Programmation & Développement : Marc-Olivier Méhu
Soutien technique & logistique : Manuel Goepfert

Contact : metmap@orbifly.com




SOURCES & CREDITS :

   NOAA